sensor_id;sensor_type;location;lat;lon;timestamp;P1;durP1;ratioP1;P2;durP2;ratioP2
46757;SDS011;32509;47.750;-3.396;2023-12-07T00:01:18;15.75;;;4.05;;
46757;SDS011;32509;47.750;-3.396;2023-12-07T00:03:44;13.93;;;4.18;;
46757;SDS011;32509;47.750;-3.396;2023-12-07T00:06:10;17.65;;;3.60;;
46757;SDS011;32509;47.750;-3.396;2023-12-07T00:08:36;8.90;;;2.42;;
46757;SDS011;32509;47.750;-3.396;2023-12-07T00:11:01;7.85;;;3.25;;
46757;SDS011;32509;47.750;-3.396;2023-12-07T00:13:27;7.43;;;2.88;;
46757;SDS011;32509;47.750;-3.396;2023-12-07T00:15:53;13.00;;;5.32;;
46757;SDS011;32509;47.750;-3.396;2023-12-07T00:18:19;11.02;;;2.25;;
46757;SDS011;32509;47.750;-3.396;2023-12-07T00:20:44;6.93;;;2.20;;
46757;SDS011;32509;47.750;-3.396;2023-12-07T00:23:10;16.00;;;4.00;;
46757;SDS011;32509;47.750;-3.396;2023-12-07T00:25:36;7.30;;;3.55;;
46757;SDS011;32509;47.750;-3.396;2023-12-07T00:28:03;9.82;;;3.08;;
46757;SDS011;32509;47.750;-3.396;2023-12-07T00:30:30;10.88;;;2.55;;
46757;SDS011;32509;47.750;-3.396;2023-12-07T00:32:56;14.50;;;4.03;;
46757;SDS011;32509;47.750;-3.396;2023-12-07T00:35:21;8.18;;;2.38;;
46757;SDS011;32509;47.750;-3.396;2023-12-07T00:37:47;5.95;;;2.42;;
46757;SDS011;32509;47.750;-3.396;2023-12-07T00:40:13;16.60;;;2.25;;
46757;SDS011;32509;47.750;-3.396;2023-12-07T00:42:39;8.50;;;1.92;;
46757;SDS011;32509;47.750;-3.396;2023-12-07T00:45:05;9.18;;;2.30;;
46757;SDS011;32509;47.750;-3.396;2023-12-07T00:47:31;6.22;;;2.53;;
46757;SDS011;32509;47.750;-3.396;2023-12-07T00:49:57;4.78;;;1.50;;
46757;SDS011;32509;47.750;-3.396;2023-12-07T00:52:23;14.43;;;2.00;;
46757;SDS011;32509;47.750;-3.396;2023-12-07T00:54:48;6.13;;;2.28;;
46757;SDS011;32509;47.750;-3.396;2023-12-07T00:57:14;11.20;;;2.97;;
46757;SDS011;32509;47.750;-3.396;2023-12-07T00:59:40;7.10;;;2.03;;
46757;SDS011;32509;47.750;-3.396;2023-12-07T01:02:06;4.03;;;1.73;;
46757;SDS011;32509;47.750;-3.396;2023-12-07T01:04:32;9.57;;;1.98;;
46757;SDS011;32509;47.750;-3.396;2023-12-07T01:06:58;11.35;;;2.00;;
46757;SDS011;32509;47.750;-3.396;2023-12-07T01:09:25;8.48;;;2.25;;
46757;SDS011;32509;47.750;-3.396;2023-12-07T01:11:51;4.85;;;1.70;;
46757;SDS011;32509;47.750;-3.396;2023-12-07T01:14:17;8.18;;;1.70;;
46757;SDS011;32509;47.750;-3.396;2023-12-07T01:16:43;8.63;;;1.90;;
46757;SDS011;32509;47.750;-3.396;2023-12-07T01:19:10;4.28;;;1.90;;
46757;SDS011;32509;47.750;-3.396;2023-12-07T01:21:39;8.32;;;1.70;;
46757;SDS011;32509;47.750;-3.396;2023-12-07T01:24:06;14.10;;;3.40;;
46757;SDS011;32509;47.750;-3.396;2023-12-07T01:26:32;4.18;;;1.80;;
46757;SDS011;32509;47.750;-3.396;2023-12-07T01:28:58;8.20;;;1.58;;
46757;SDS011;32509;47.750;-3.396;2023-12-07T01:31:24;10.88;;;2.33;;
46757;SDS011;32509;47.750;-3.396;2023-12-07T01:33:49;7.75;;;1.75;;
46757;SDS011;32509;47.750;-3.396;2023-12-07T01:36:15;7.97;;;2.03;;
46757;SDS011;32509;47.750;-3.396;2023-12-07T01:38:41;8.90;;;3.22;;
46757;SDS011;32509;47.750;-3.396;2023-12-07T01:41:08;8.18;;;2.05;;
46757;SDS011;32509;47.750;-3.396;2023-12-07T01:43:34;9.55;;;2.25;;
46757;SDS011;32509;47.750;-3.396;2023-12-07T01:46:00;7.03;;;1.85;;
46757;SDS011;32509;47.750;-3.396;2023-12-07T01:48:26;7.70;;;1.48;;
46757;SDS011;32509;47.750;-3.396;2023-12-07T01:50:54;11.43;;;2.08;;
46757;SDS011;32509;47.750;-3.396;2023-12-07T01:53:23;12.20;;;2.92;;
46757;SDS011;32509;47.750;-3.396;2023-12-07T01:55:50;12.02;;;2.42;;
46757;SDS011;32509;47.750;-3.396;2023-12-07T01:58:18;9.77;;;2.60;;
46757;SDS011;32509;47.750;-3.396;2023-12-07T02:00:44;14.13;;;2.22;;
46757;SDS011;32509;47.750;-3.396;2023-12-07T02:03:11;6.63;;;2.03;;
46757;SDS011;32509;47.750;-3.396;2023-12-07T02:05:41;9.07;;;2.28;;
46757;SDS011;32509;47.750;-3.396;2023-12-07T02:08:08;5.25;;;2.30;;
46757;SDS011;32509;47.750;-3.396;2023-12-07T02:10:34;8.45;;;2.00;;
46757;SDS011;32509;47.750;-3.396;2023-12-07T02:13:00;10.63;;;3.47;;
46757;SDS011;32509;47.750;-3.396;2023-12-07T02:15:26;9.10;;;2.08;;
46757;SDS011;32509;47.750;-3.396;2023-12-07T02:23:07;11.23;;;2.22;;
46757;SDS011;32509;47.750;-3.396;2023-12-07T02:25:52;10.55;;;2.20;;
46757;SDS011;32509;47.750;-3.396;2023-12-07T02:28:19;7.55;;;2.38;;
46757;SDS011;32509;47.750;-3.396;2023-12-07T02:30:48;8.15;;;1.77;;
46757;SDS011;32509;47.750;-3.396;2023-12-07T02:33:13;9.02;;;2.60;;
46757;SDS011;32509;47.750;-3.396;2023-12-07T02:35:40;3.83;;;1.63;;
46757;SDS011;32509;47.750;-3.396;2023-12-07T02:38:07;12.88;;;2.58;;
46757;SDS011;32509;47.750;-3.396;2023-12-07T02:40:33;4.50;;;1.63;;
46757;SDS011;32509;47.750;-3.396;2023-12-07T02:43:00;9.73;;;2.90;;
46757;SDS011;32509;47.750;-3.396;2023-12-07T02:45:26;8.90;;;2.15;;
46757;SDS011;32509;47.750;-3.396;2023-12-07T02:47:52;9.02;;;2.00;;
46757;SDS011;32509;47.750;-3.396;2023-12-07T02:50:19;8.57;;;2.60;;
46757;SDS011;32509;47.750;-3.396;2023-12-07T02:52:45;10.75;;;2.10;;
46757;SDS011;32509;47.750;-3.396;2023-12-07T02:55:11;10.50;;;2.35;;
46757;SDS011;32509;47.750;-3.396;2023-12-07T02:57:37;9.35;;;2.83;;
46757;SDS011;32509;47.750;-3.396;2023-12-07T03:00:03;8.07;;;2.30;;
46757;SDS011;32509;47.750;-3.396;2023-12-07T03:02:38;10.85;;;2.28;;
46757;SDS011;32509;47.750;-3.396;2023-12-07T03:05:05;9.82;;;2.60;;
46757;SDS011;32509;47.750;-3.396;2023-12-07T03:07:31;13.15;;;3.97;;
46757;SDS011;32509;47.750;-3.396;2023-12-07T03:09:57;12.07;;;2.33;;
46757;SDS011;32509;47.750;-3.396;2023-12-07T03:12:23;17.10;;;2.72;;
46757;SDS011;32509;47.750;-3.396;2023-12-07T03:14:49;14.90;;;2.90;;
46757;SDS011;32509;47.750;-3.396;2023-12-07T03:17:15;17.60;;;3.15;;
46757;SDS011;32509;47.750;-3.396;2023-12-07T03:19:41;8.38;;;2.45;;
46757;SDS011;32509;47.750;-3.396;2023-12-07T03:22:07;9.73;;;2.05;;
46757;SDS011;32509;47.750;-3.396;2023-12-07T03:24:37;7.88;;;2.38;;
46757;SDS011;32509;47.750;-3.396;2023-12-07T03:27:03;6.40;;;2.17;;
46757;SDS011;32509;47.750;-3.396;2023-12-07T03:29:30;10.43;;;2.75;;
46757;SDS011;32509;47.750;-3.396;2023-12-07T03:31:56;9.57;;;2.60;;
46757;SDS011;32509;47.750;-3.396;2023-12-07T03:34:23;7.82;;;2.17;;
46757;SDS011;32509;47.750;-3.396;2023-12-07T03:36:49;12.45;;;3.33;;
46757;SDS011;32509;47.750;-3.396;2023-12-07T03:39:15;9.57;;;2.58;;
46757;SDS011;32509;47.750;-3.396;2023-12-07T03:41:43;12.90;;;2.47;;
46757;SDS011;32509;47.750;-3.396;2023-12-07T03:44:09;13.13;;;3.03;;
46757;SDS011;32509;47.750;-3.396;2023-12-07T03:46:35;13.02;;;3.38;;
46757;SDS011;32509;47.750;-3.396;2023-12-07T03:49:01;11.25;;;2.10;;
46757;SDS011;32509;47.750;-3.396;2023-12-07T03:51:27;9.13;;;2.88;;
46757;SDS011;32509;47.750;-3.396;2023-12-07T03:53:54;6.55;;;2.20;;
46757;SDS011;32509;47.750;-3.396;2023-12-07T03:56:30;9.68;;;2.33;;
46757;SDS011;32509;47.750;-3.396;2023-12-07T03:58:56;15.07;;;2.35;;
46757;SDS011;32509;47.750;-3.396;2023-12-07T04:01:23;9.73;;;2.05;;
46757;SDS011;32509;47.750;-3.396;2023-12-07T04:03:50;8.98;;;2.53;;
46757;SDS011;32509;47.750;-3.396;2023-12-07T04:06:16;10.88;;;2.95;;
46757;SDS011;32509;47.750;-3.396;2023-12-07T04:08:42;7.65;;;1.92;;
46757;SDS011;32509;47.750;-3.396;2023-12-07T04:11:08;16.67;;;5.18;;
46757;SDS011;32509;47.750;-3.396;2023-12-07T04:13:34;9.40;;;2.47;;
46757;SDS011;32509;47.750;-3.396;2023-12-07T04:15:59;10.38;;;2.28;;
46757;SDS011;32509;47.750;-3.396;2023-12-07T04:18:25;10.55;;;3.00;;
46757;SDS011;32509;47.750;-3.396;2023-12-07T04:20:51;12.57;;;3.50;;
46757;SDS011;32509;47.750;-3.396;2023-12-07T04:23:17;10.93;;;2.38;;
46757;SDS011;32509;47.750;-3.396;2023-12-07T04:25:43;7.72;;;2.20;;
46757;SDS011;32509;47.750;-3.396;2023-12-07T04:28:08;10.95;;;2.08;;
46757;SDS011;32509;47.750;-3.396;2023-12-07T04:30:34;8.60;;;2.35;;
46757;SDS011;32509;47.750;-3.396;2023-12-07T04:33:00;7.72;;;2.33;;
46757;SDS011;32509;47.750;-3.396;2023-12-07T04:35:26;13.75;;;3.05;;
46757;SDS011;32509;47.750;-3.396;2023-12-07T04:37:53;15.98;;;2.97;;
46757;SDS011;32509;47.750;-3.396;2023-12-07T04:40:19;21.67;;;4.10;;
46757;SDS011;32509;47.750;-3.396;2023-12-07T04:42:45;12.73;;;3.40;;
46757;SDS011;32509;47.750;-3.396;2023-12-07T04:45:11;16.42;;;3.47;;
46757;SDS011;32509;47.750;-3.396;2023-12-07T04:47:37;16.13;;;3.17;;
46757;SDS011;32509;47.750;-3.396;2023-12-07T04:50:03;12.88;;;3.50;;
46757;SDS011;32509;47.750;-3.396;2023-12-07T04:52:29;19.13;;;4.80;;
46757;SDS011;32509;47.750;-3.396;2023-12-07T04:54:55;19.90;;;3.67;;
46757;SDS011;32509;47.750;-3.396;2023-12-07T04:57:21;19.55;;;3.75;;
46757;SDS011;32509;47.750;-3.396;2023-12-07T04:59:46;21.60;;;3.50;;
46757;SDS011;32509;47.750;-3.396;2023-12-07T05:02:16;20.27;;;5.43;;
46757;SDS011;32509;47.750;-3.396;2023-12-07T05:04:45;14.75;;;4.05;;
46757;SDS011;32509;47.750;-3.396;2023-12-07T05:07:11;23.25;;;4.22;;
46757;SDS011;32509;47.750;-3.396;2023-12-07T05:09:39;26.63;;;4.93;;
46757;SDS011;32509;47.750;-3.396;2023-12-07T05:12:05;21.50;;;5.55;;
46757;SDS011;32509;47.750;-3.396;2023-12-07T05:14:32;28.38;;;6.35;;
46757;SDS011;32509;47.750;-3.396;2023-12-07T05:16:58;11.10;;;2.90;;
46757;SDS011;32509;47.750;-3.396;2023-12-07T05:19:24;16.30;;;4.22;;
46757;SDS011;32509;47.750;-3.396;2023-12-07T05:21:51;17.83;;;4.55;;
46757;SDS011;32509;47.750;-3.396;2023-12-07T05:24:17;26.30;;;4.78;;
46757;SDS011;32509;47.750;-3.396;2023-12-07T05:26:43;21.35;;;4.68;;
46757;SDS011;32509;47.750;-3.396;2023-12-07T05:29:12;32.28;;;5.88;;
46757;SDS011;32509;47.750;-3.396;2023-12-07T05:31:38;19.23;;;4.72;;
46757;SDS011;32509;47.750;-3.396;2023-12-07T05:34:04;30.83;;;5.68;;
46757;SDS011;32509;47.750;-3.396;2023-12-07T05:36:30;24.13;;;5.30;;
46757;SDS011;32509;47.750;-3.396;2023-12-07T05:38:57;18.70;;;4.88;;
46757;SDS011;32509;47.750;-3.396;2023-12-07T05:41:23;16.75;;;5.88;;
46757;SDS011;32509;47.750;-3.396;2023-12-07T05:43:49;19.67;;;4.97;;
46757;SDS011;32509;47.750;-3.396;2023-12-07T05:46:14;23.52;;;4.47;;
46757;SDS011;32509;47.750;-3.396;2023-12-07T05:48:43;22.33;;;4.90;;
46757;SDS011;32509;47.750;-3.396;2023-12-07T05:51:16;20.25;;;4.78;;
46757;SDS011;32509;47.750;-3.396;2023-12-07T05:53:42;26.77;;;5.20;;
46757;SDS011;32509;47.750;-3.396;2023-12-07T05:56:09;17.13;;;3.53;;
46757;SDS011;32509;47.750;-3.396;2023-12-07T05:58:36;14.40;;;4.13;;
46757;SDS011;32509;47.750;-3.396;2023-12-07T06:01:02;29.05;;;4.80;;
46757;SDS011;32509;47.750;-3.396;2023-12-07T06:03:28;22.83;;;6.18;;
46757;SDS011;32509;47.750;-3.396;2023-12-07T06:05:54;17.77;;;4.25;;
46757;SDS011;32509;47.750;-3.396;2023-12-07T06:08:21;12.13;;;3.05;;
46757;SDS011;32509;47.750;-3.396;2023-12-07T06:10:47;11.30;;;3.05;;
46757;SDS011;32509;47.750;-3.396;2023-12-07T06:13:13;20.67;;;4.95;;
46757;SDS011;32509;47.750;-3.396;2023-12-07T06:15:39;11.85;;;3.22;;
46757;SDS011;32509;47.750;-3.396;2023-12-07T06:18:05;15.27;;;3.83;;
46757;SDS011;32509;47.750;-3.396;2023-12-07T06:20:32;15.45;;;4.93;;
46757;SDS011;32509;47.750;-3.396;2023-12-07T06:22:58;14.23;;;3.58;;
46757;SDS011;32509;47.750;-3.396;2023-12-07T06:25:24;9.93;;;3.20;;
46757;SDS011;32509;47.750;-3.396;2023-12-07T06:27:50;11.40;;;2.85;;
46757;SDS011;32509;47.750;-3.396;2023-12-07T06:30:16;10.80;;;3.17;;
46757;SDS011;32509;47.750;-3.396;2023-12-07T06:32:43;9.10;;;2.38;;
46757;SDS011;32509;47.750;-3.396;2023-12-07T06:35:11;15.98;;;4.10;;
46757;SDS011;32509;47.750;-3.396;2023-12-07T06:37:37;12.60;;;3.15;;
46757;SDS011;32509;47.750;-3.396;2023-12-07T06:40:04;12.10;;;4.50;;
46757;SDS011;32509;47.750;-3.396;2023-12-07T06:42:31;15.98;;;4.68;;
46757;SDS011;32509;47.750;-3.396;2023-12-07T06:44:57;21.80;;;4.55;;
46757;SDS011;32509;47.750;-3.396;2023-12-07T06:47:22;7.28;;;3.35;;
46757;SDS011;32509;47.750;-3.396;2023-12-07T06:49:48;25.27;;;6.80;;
46757;SDS011;32509;47.750;-3.396;2023-12-07T06:52:14;15.73;;;6.13;;
46757;SDS011;32509;47.750;-3.396;2023-12-07T06:54:39;11.07;;;3.60;;
46757;SDS011;32509;47.750;-3.396;2023-12-07T06:57:05;12.05;;;4.30;;
46757;SDS011;32509;47.750;-3.396;2023-12-07T06:59:34;12.85;;;3.13;;
46757;SDS011;32509;47.750;-3.396;2023-12-07T07:02:00;17.02;;;4.97;;
46757;SDS011;32509;47.750;-3.396;2023-12-07T07:04:26;9.98;;;2.35;;
46757;SDS011;32509;47.750;-3.396;2023-12-07T07:06:52;6.75;;;2.47;;
46757;SDS011;32509;47.750;-3.396;2023-12-07T07:09:17;9.57;;;2.50;;
46757;SDS011;32509;47.750;-3.396;2023-12-07T07:11:49;6.30;;;2.47;;
46757;SDS011;32509;47.750;-3.396;2023-12-07T07:14:15;6.85;;;1.90;;
46757;SDS011;32509;47.750;-3.396;2023-12-07T07:16:41;8.10;;;2.65;;
46757;SDS011;32509;47.750;-3.396;2023-12-07T07:19:07;7.53;;;2.42;;
46757;SDS011;32509;47.750;-3.396;2023-12-07T07:21:33;7.55;;;2.15;;
46757;SDS011;32509;47.750;-3.396;2023-12-07T07:23:59;12.65;;;2.33;;
46757;SDS011;32509;47.750;-3.396;2023-12-07T07:26:25;10.82;;;2.50;;
46757;SDS011;32509;47.750;-3.396;2023-12-07T07:28:52;6.78;;;2.47;;
46757;SDS011;32509;47.750;-3.396;2023-12-07T07:31:18;7.50;;;2.83;;
46757;SDS011;32509;47.750;-3.396;2023-12-07T07:33:44;6.38;;;2.25;;
46757;SDS011;32509;47.750;-3.396;2023-12-07T07:36:12;5.75;;;2.08;;
46757;SDS011;32509;47.750;-3.396;2023-12-07T07:38:38;4.65;;;1.88;;
46757;SDS011;32509;47.750;-3.396;2023-12-07T07:41:04;13.75;;;5.55;;
46757;SDS011;32509;47.750;-3.396;2023-12-07T07:43:30;7.07;;;2.63;;
46757;SDS011;32509;47.750;-3.396;2023-12-07T07:45:56;8.90;;;2.42;;
46757;SDS011;32509;47.750;-3.396;2023-12-07T07:48:22;6.25;;;1.88;;
46757;SDS011;32509;47.750;-3.396;2023-12-07T07:50:47;7.40;;;2.28;;
46757;SDS011;32509;47.750;-3.396;2023-12-07T07:53:13;7.93;;;1.73;;
46757;SDS011;32509;47.750;-3.396;2023-12-07T07:55:39;13.50;;;2.60;;
46757;SDS011;32509;47.750;-3.396;2023-12-07T07:58:05;11.82;;;2.10;;
46757;SDS011;32509;47.750;-3.396;2023-12-07T08:00:31;6.63;;;1.90;;
46757;SDS011;32509;47.750;-3.396;2023-12-07T08:02:58;12.68;;;2.92;;
46757;SDS011;32509;47.750;-3.396;2023-12-07T08:05:23;11.32;;;2.35;;
46757;SDS011;32509;47.750;-3.396;2023-12-07T08:07:50;9.23;;;2.20;;
46757;SDS011;32509;47.750;-3.396;2023-12-07T08:10:16;14.52;;;2.17;;
46757;SDS011;32509;47.750;-3.396;2023-12-07T08:12:42;13.43;;;2.63;;
46757;SDS011;32509;47.750;-3.396;2023-12-07T08:15:08;6.53;;;2.45;;
46757;SDS011;32509;47.750;-3.396;2023-12-07T08:17:40;10.70;;;3.85;;
46757;SDS011;32509;47.750;-3.396;2023-12-07T08:20:07;7.25;;;2.80;;
46757;SDS011;32509;47.750;-3.396;2023-12-07T08:22:37;11.50;;;3.05;;
46757;SDS011;32509;47.750;-3.396;2023-12-07T08:25:03;12.63;;;1.90;;
46757;SDS011;32509;47.750;-3.396;2023-12-07T08:27:33;10.30;;;1.83;;
46757;SDS011;32509;47.750;-3.396;2023-12-07T08:29:59;13.10;;;2.25;;
46757;SDS011;32509;47.750;-3.396;2023-12-07T08:32:25;14.05;;;4.15;;
46757;SDS011;32509;47.750;-3.396;2023-12-07T08:34:51;15.95;;;3.58;;
46757;SDS011;32509;47.750;-3.396;2023-12-07T08:37:17;6.15;;;1.75;;
46757;SDS011;32509;47.750;-3.396;2023-12-07T08:39:43;18.42;;;1.95;;
46757;SDS011;32509;47.750;-3.396;2023-12-07T08:42:10;7.15;;;3.05;;
46757;SDS011;32509;47.750;-3.396;2023-12-07T08:44:36;10.27;;;2.35;;
46757;SDS011;32509;47.750;-3.396;2023-12-07T08:47:02;6.70;;;2.13;;
46757;SDS011;32509;47.750;-3.396;2023-12-07T08:49:28;11.25;;;1.90;;
46757;SDS011;32509;47.750;-3.396;2023-12-07T08:51:54;9.07;;;2.38;;
46757;SDS011;32509;47.750;-3.396;2023-12-07T08:54:21;11.43;;;2.38;;
46757;SDS011;32509;47.750;-3.396;2023-12-07T08:56:46;7.28;;;2.30;;
46757;SDS011;32509;47.750;-3.396;2023-12-07T08:59:12;9.45;;;2.10;;
46757;SDS011;32509;47.750;-3.396;2023-12-07T09:01:38;13.70;;;3.55;;
46757;SDS011;32509;47.750;-3.396;2023-12-07T09:04:04;13.43;;;2.13;;
46757;SDS011;32509;47.750;-3.396;2023-12-07T09:06:30;12.40;;;2.60;;
46757;SDS011;32509;47.750;-3.396;2023-12-07T09:08:56;20.52;;;3.67;;
46757;SDS011;32509;47.750;-3.396;2023-12-07T09:11:22;13.93;;;2.90;;
46757;SDS011;32509;47.750;-3.396;2023-12-07T09:13:48;11.45;;;2.67;;
46757;SDS011;32509;47.750;-3.396;2023-12-07T09:16:14;9.82;;;3.00;;
46757;SDS011;32509;47.750;-3.396;2023-12-07T09:18:41;14.18;;;2.35;;
46757;SDS011;32509;47.750;-3.396;2023-12-07T09:21:07;9.45;;;3.05;;
46757;SDS011;32509;47.750;-3.396;2023-12-07T09:23:33;7.57;;;2.90;;
46757;SDS011;32509;47.750;-3.396;2023-12-07T09:26:00;12.95;;;3.38;;
46757;SDS011;32509;47.750;-3.396;2023-12-07T09:28:26;8.68;;;1.95;;
46757;SDS011;32509;47.750;-3.396;2023-12-07T09:30:52;9.00;;;1.98;;
46757;SDS011;32509;47.750;-3.396;2023-12-07T09:33:17;10.05;;;2.78;;
46757;SDS011;32509;47.750;-3.396;2023-12-07T09:35:44;13.45;;;3.55;;
46757;SDS011;32509;47.750;-3.396;2023-12-07T09:38:09;9.57;;;1.85;;
46757;SDS011;32509;47.750;-3.396;2023-12-07T09:40:35;8.73;;;2.20;;
46757;SDS011;32509;47.750;-3.396;2023-12-07T09:43:01;17.63;;;3.28;;
46757;SDS011;32509;47.750;-3.396;2023-12-07T09:45:27;12.77;;;3.78;;
46757;SDS011;32509;47.750;-3.396;2023-12-07T09:47:53;17.38;;;4.45;;
46757;SDS011;32509;47.750;-3.396;2023-12-07T09:50:20;11.48;;;2.85;;
46757;SDS011;32509;47.750;-3.396;2023-12-07T09:52:47;14.13;;;2.17;;
46757;SDS011;32509;47.750;-3.396;2023-12-07T09:55:15;10.25;;;2.08;;
46757;SDS011;32509;47.750;-3.396;2023-12-07T09:57:42;9.73;;;2.42;;
46757;SDS011;32509;47.750;-3.396;2023-12-07T10:00:08;8.00;;;2.17;;
46757;SDS011;32509;47.750;-3.396;2023-12-07T10:02:39;9.70;;;2.70;;
46757;SDS011;32509;47.750;-3.396;2023-12-07T10:05:10;17.90;;;3.67;;
46757;SDS011;32509;47.750;-3.396;2023-12-07T10:07:41;13.30;;;2.63;;
46757;SDS011;32509;47.750;-3.396;2023-12-07T10:10:12;16.75;;;3.17;;
46757;SDS011;32509;47.750;-3.396;2023-12-07T10:15:18;10.15;;;2.42;;
46757;SDS011;32509;47.750;-3.396;2023-12-07T10:20:22;13.02;;;3.28;;
46757;SDS011;32509;47.750;-3.396;2023-12-07T10:23:00;12.05;;;2.45;;
46757;SDS011;32509;47.750;-3.396;2023-12-07T10:25:34;13.98;;;3.38;;
46757;SDS011;32509;47.750;-3.396;2023-12-07T10:28:02;13.50;;;2.43;;
46757;SDS011;32509;47.750;-3.396;2023-12-07T10:30:32;17.95;;;3.88;;
46757;SDS011;32509;47.750;-3.396;2023-12-07T10:32:58;9.85;;;2.08;;
46757;SDS011;32509;47.750;-3.396;2023-12-07T10:35:23;6.93;;;1.90;;
46757;SDS011;32509;47.750;-3.396;2023-12-07T10:37:50;11.05;;;2.67;;
46757;SDS011;32509;47.750;-3.396;2023-12-07T10:40:16;8.68;;;2.45;;
46757;SDS011;32509;47.750;-3.396;2023-12-07T10:42:47;12.10;;;2.95;;
46757;SDS011;32509;47.750;-3.396;2023-12-07T10:45:14;18.77;;;4.03;;
46757;SDS011;32509;47.750;-3.396;2023-12-07T10:47:44;19.35;;;4.15;;
46757;SDS011;32509;47.750;-3.396;2023-12-07T10:50:10;12.77;;;2.78;;
46757;SDS011;32509;47.750;-3.396;2023-12-07T10:52:45;8.48;;;3.10;;
46757;SDS011;32509;47.750;-3.396;2023-12-07T10:55:22;11.15;;;2.92;;
46757;SDS011;32509;47.750;-3.396;2023-12-07T10:57:54;18.42;;;3.53;;
46757;SDS011;32509;47.750;-3.396;2023-12-07T11:00:21;22.20;;;4.13;;
46757;SDS011;32509;47.750;-3.396;2023-12-07T11:02:53;8.90;;;2.80;;
46757;SDS011;32509;47.750;-3.396;2023-12-07T11:05:19;21.30;;;4.93;;
46757;SDS011;32509;47.750;-3.396;2023-12-07T16:39:32;98.95;;;22.58;;
46757;SDS011;32509;47.750;-3.396;2023-12-07T16:41:58;123.25;;;32.05;;
46757;SDS011;32509;47.750;-3.396;2023-12-07T16:44:26;117.88;;;26.50;;
46757;SDS011;32509;47.750;-3.396;2023-12-07T16:46:52;98.43;;;32.15;;
46757;SDS011;32509;47.750;-3.396;2023-12-07T16:49:24;125.55;;;34.88;;
46757;SDS011;32509;47.750;-3.396;2023-12-07T16:51:51;137.07;;;28.25;;
46757;SDS011;32509;47.750;-3.396;2023-12-07T16:54:17;113.65;;;31.42;;
46757;SDS011;32509;47.750;-3.396;2023-12-07T16:56:43;110.22;;;23.73;;
46757;SDS011;32509;47.750;-3.396;2023-12-07T16:59:09;101.70;;;23.50;;
46757;SDS011;32509;47.750;-3.396;2023-12-07T17:01:35;113.00;;;26.42;;
46757;SDS011;32509;47.750;-3.396;2023-12-07T17:04:01;96.25;;;21.63;;
46757;SDS011;32509;47.750;-3.396;2023-12-07T17:06:26;100.72;;;25.80;;
46757;SDS011;32509;47.750;-3.396;2023-12-07T17:08:52;139.50;;;32.58;;
46757;SDS011;32509;47.750;-3.396;2023-12-07T17:11:21;115.93;;;24.92;;
46757;SDS011;32509;47.750;-3.396;2023-12-07T17:13:47;131.05;;;29.92;;
46757;SDS011;32509;47.750;-3.396;2023-12-07T17:16:16;105.40;;;21.42;;
46757;SDS011;32509;47.750;-3.396;2023-12-07T17:18:45;111.55;;;22.30;;
46757;SDS011;32509;47.750;-3.396;2023-12-07T17:21:18;98.35;;;20.83;;
46757;SDS011;32509;47.750;-3.396;2023-12-07T17:23:49;98.05;;;18.63;;
46757;SDS011;32509;47.750;-3.396;2023-12-07T17:26:15;113.90;;;16.73;;
46757;SDS011;32509;47.750;-3.396;2023-12-07T17:28:41;99.88;;;19.60;;
46757;SDS011;32509;47.750;-3.396;2023-12-07T17:31:07;86.95;;;17.75;;
46757;SDS011;32509;47.750;-3.396;2023-12-07T17:33:32;121.43;;;21.67;;
46757;SDS011;32509;47.750;-3.396;2023-12-07T17:35:58;104.25;;;17.90;;
46757;SDS011;32509;47.750;-3.396;2023-12-07T17:38:24;117.13;;;18.73;;
46757;SDS011;32509;47.750;-3.396;2023-12-07T17:40:50;111.47;;;18.75;;
46757;SDS011;32509;47.750;-3.396;2023-12-07T17:43:15;118.90;;;18.25;;
46757;SDS011;32509;47.750;-3.396;2023-12-07T17:45:41;88.53;;;17.95;;
46757;SDS011;32509;47.750;-3.396;2023-12-07T17:48:07;104.45;;;18.60;;
46757;SDS011;32509;47.750;-3.396;2023-12-07T17:50:37;89.47;;;16.73;;
46757;SDS011;32509;47.750;-3.396;2023-12-07T17:53:04;122.20;;;23.38;;
46757;SDS011;32509;47.750;-3.396;2023-12-07T17:55:30;99.30;;;17.48;;
46757;SDS011;32509;47.750;-3.396;2023-12-07T17:57:56;95.35;;;16.98;;
46757;SDS011;32509;47.750;-3.396;2023-12-07T18:00:22;106.72;;;17.65;;
46757;SDS011;32509;47.750;-3.396;2023-12-07T18:02:48;103.38;;;15.43;;
46757;SDS011;32509;47.750;-3.396;2023-12-07T18:05:14;86.55;;;17.33;;
46757;SDS011;32509;47.750;-3.396;2023-12-07T18:07:40;111.85;;;19.92;;
46757;SDS011;32509;47.750;-3.396;2023-12-07T18:10:08;114.72;;;19.50;;
46757;SDS011;32509;47.750;-3.396;2023-12-07T18:12:34;89.68;;;16.85;;
46757;SDS011;32509;47.750;-3.396;2023-12-07T18:15:02;110.68;;;20.08;;
46757;SDS011;32509;47.750;-3.396;2023-12-07T18:17:28;103.30;;;19.05;;
46757;SDS011;32509;47.750;-3.396;2023-12-07T18:19:54;113.70;;;24.35;;
46757;SDS011;32509;47.750;-3.396;2023-12-07T18:22:20;99.25;;;20.02;;
46757;SDS011;32509;47.750;-3.396;2023-12-07T18:24:45;103.28;;;23.20;;
46757;SDS011;32509;47.750;-3.396;2023-12-07T18:27:11;93.30;;;20.90;;
46757;SDS011;32509;47.750;-3.396;2023-12-07T18:29:37;112.05;;;22.95;;
46757;SDS011;32509;47.750;-3.396;2023-12-07T18:32:04;118.80;;;24.42;;
46757;SDS011;32509;47.750;-3.396;2023-12-07T18:34:33;82.47;;;16.92;;
46757;SDS011;32509;47.750;-3.396;2023-12-07T18:37:02;93.03;;;18.33;;
46757;SDS011;32509;47.750;-3.396;2023-12-07T18:39:28;102.53;;;20.77;;
46757;SDS011;32509;47.750;-3.396;2023-12-07T18:41:54;114.80;;;21.67;;
46757;SDS011;32509;47.750;-3.396;2023-12-07T18:44:20;105.53;;;19.30;;
46757;SDS011;32509;47.750;-3.396;2023-12-07T18:46:46;97.38;;;19.90;;
46757;SDS011;32509;47.750;-3.396;2023-12-07T18:49:12;99.35;;;19.23;;
46757;SDS011;32509;47.750;-3.396;2023-12-07T18:51:38;113.25;;;21.33;;
46757;SDS011;32509;47.750;-3.396;2023-12-07T18:54:04;104.70;;;21.42;;
46757;SDS011;32509;47.750;-3.396;2023-12-07T18:56:29;121.68;;;22.75;;
46757;SDS011;32509;47.750;-3.396;2023-12-07T18:58:55;130.18;;;23.45;;
46757;SDS011;32509;47.750;-3.396;2023-12-07T19:01:31;89.97;;;20.40;;
46757;SDS011;32509;47.750;-3.396;2023-12-07T19:03:57;106.43;;;21.67;;
46757;SDS011;32509;47.750;-3.396;2023-12-07T19:06:23;126.63;;;25.67;;
46757;SDS011;32509;47.750;-3.396;2023-12-07T19:08:53;104.55;;;20.98;;
46757;SDS011;32509;47.750;-3.396;2023-12-07T19:11:31;106.72;;;22.13;;
46757;SDS011;32509;47.750;-3.396;2023-12-07T19:13:57;140.88;;;28.88;;
46757;SDS011;32509;47.750;-3.396;2023-12-07T19:16:26;121.68;;;23.10;;
46757;SDS011;32509;47.750;-3.396;2023-12-07T19:18:54;124.55;;;22.70;;
46757;SDS011;32509;47.750;-3.396;2023-12-07T19:21:23;124.25;;;21.55;;
46757;SDS011;32509;47.750;-3.396;2023-12-07T19:23:49;121.75;;;21.33;;
46757;SDS011;32509;47.750;-3.396;2023-12-07T19:26:18;120.25;;;21.77;;
46757;SDS011;32509;47.750;-3.396;2023-12-07T19:28:59;118.47;;;20.55;;
46757;SDS011;32509;47.750;-3.396;2023-12-07T19:31:27;136.10;;;22.40;;
46757;SDS011;32509;47.750;-3.396;2023-12-07T19:33:59;148.48;;;25.23;;
46757;SDS011;32509;47.750;-3.396;2023-12-07T19:36:39;126.85;;;25.20;;
46757;SDS011;32509;47.750;-3.396;2023-12-07T19:39:12;137.07;;;24.13;;
46757;SDS011;32509;47.750;-3.396;2023-12-07T19:41:45;124.03;;;24.50;;
46757;SDS011;32509;47.750;-3.396;2023-12-07T19:44:11;129.57;;;26.65;;
46757;SDS011;32509;47.750;-3.396;2023-12-07T19:46:38;144.82;;;33.15;;
46757;SDS011;32509;47.750;-3.396;2023-12-07T19:49:04;138.70;;;32.28;;
46757;SDS011;32509;47.750;-3.396;2023-12-07T19:51:33;157.05;;;32.13;;
46757;SDS011;32509;47.750;-3.396;2023-12-07T19:54:04;122.47;;;25.92;;
46757;SDS011;32509;47.750;-3.396;2023-12-07T19:56:45;135.68;;;27.35;;
46757;SDS011;32509;47.750;-3.396;2023-12-07T19:59:20;106.25;;;22.60;;
46757;SDS011;32509;47.750;-3.396;2023-12-07T20:01:49;124.45;;;22.10;;